Eviapetrol I — SY5401 — position and weather

sailwx.info

Track history (hours):
 
Tides and Currents Weather Stations Pressure Air Temp Water Temp Dewpoint Dewpoint Depression Visibility Wind Speed Wind Dir Waves Ship Positions

Eviapetrol I

Last reported at 2015-Aug-02 21:33 UTC. Time now 2015-Aug-02 22:27 UTC.
Position N 36°50' E 027°03'.

Length 75 m; draft 5 m.

Type: Tanker. MMSI: 240285000.

Date/timePositionNaut miles runAvg speedWind from/ knotsBaromVisibWave heightAir tempDewpointWater temp
2015-Aug-02 21:33N 36°50' E 027°03'0 0.0
2015-Aug-02 20:21N 36°50' E 027°03'0 0.0
2015-Aug-02 19:33N 36°50' E 027°03'0 0.0
2015-Aug-02 18:27N 36°50' E 027°03'0 0.0
2015-Aug-02 17:21N 36°50' E 027°03'0 0.0
2015-Aug-02 16:30N 36°50' E 027°03'0 0.0
2015-Aug-02 15:33N 36°50' E 027°03'0 0.0
2015-Aug-02 14:33N 36°50' E 027°03'0 0.0
2015-Aug-02 13:15N 36°50' E 027°03'0 0.0
2015-Aug-02 12:29N 36°50' E 027°03'3 3.1
2015-Aug-02 11:32N 36°51' E 026°59'31 3.1
2015-Aug-02 01:33N 37°03' E 026°23'12 8.6
2015-Aug-02 00:13N 37°06' E 026°09'8 8.8
2015-Aug-01 23:21N 37°08' E 026°00'9 9.0
2015-Aug-01 22:21N 37°10' E 025°49'8 9.5
2015-Aug-01 21:33N 37°11' E 025°40'9 8.8
2015-Aug-01 20:33N 37°14' E 025°29'8 8.4
2015-Aug-01 19:33N 37°16' E 025°19'8 8.5
2015-Aug-01 18:33N 37°17' E 025°09'8 8.4
2015-Aug-01 17:34N 37°19' E 024°58'9 8.8
2015-Aug-01 16:33N 37°22' E 024°48'35 8.2
2015-Aug-01 12:15N 37°33' E 024°05'7 8.5
2015-Aug-01 11:28N 37°36' E 023°58'8 8.8
2015-Aug-01 10:33N 37°38' E 023°48'8 8.1
2015-Aug-01 09:33N 37°43' E 023°40'9 9.4
2015-Aug-01 08:33N 37°52' E 023°36'8 8.0
2015-Aug-01 07:33N 37°60' E 023°33'2 1.8
2015-Aug-01 06:33N 38°01' E 023°32'0 0.0
2015-Aug-01 05:30N 38°01' E 023°32'0 0.0
2015-Aug-01 04:33N 38°01' E 023°32'0 0.0
2015-Aug-01 03:33N 38°01' E 023°32'0 0.0
2015-Aug-01 02:33N 38°01' E 023°32'0 0.0
2015-Aug-01 01:33N 38°01' E 023°32'0 0.0
2015-Aug-01 00:27N 38°01' E 023°32'0 0.0
2015-Jul-31 23:30N 38°01' E 023°32'0 0.0
2015-Jul-31 22:33N 38°01' E 023°32'0 0.0
2015-Jul-31 21:33N 38°01' E 023°32'0 0.0
2015-Jul-31 20:33N 38°01' E 023°32'0 0.0
2015-Jul-31 19:33N 38°02' E 023°32'0 0.0
2015-Jul-31 18:33N 38°02' E 023°32'3 2.6
2015-Jul-31 17:33N 38°02' E 023°36'0 0.0
2015-Jul-31 13:33N 38°02' E 023°36'0 0.0
2015-Jul-31 10:33N 38°02' E 023°36'0 0.0
2015-Jul-31 09:33N 38°02' E 023°36'0 0.0
2015-Jul-31 08:33N 38°02' E 023°36'0 0.0
2015-Jul-31 07:33N 38°02' E 023°36'0 0.0
2015-Jul-31 06:21N 38°02' E 023°36'0 0.0
2015-Jul-31 05:27N 38°02' E 023°36'1 1.4
2015-Jul-31 04:33N 38°01' E 023°34'2 1.5
2015-Jul-31 03:16N 38°02' E 023°32'0 0.0
2015-Jul-31 00:22N 38°02' E 023°32'0 0.0
2015-Jul-30 23:29N 38°02' E 023°32'0 0.0
2015-Jul-30 22:32N 38°02' E 023°32'0 0.0
2015-Jul-30 21:31N 38°02' E 023°32'0 0.0
2015-Jul-30 20:23N 38°02' E 023°32'0 0.1
2015-Jul-30 19:31N 38°02' E 023°32'0 0.0
2015-Jul-30 18:32N 38°02' E 023°32'0 0.0
2015-Jul-30 17:32N 38°02' E 023°32'0 0.0
2015-Jul-30 16:26N 38°02' E 023°32'0 0.0
2015-Jul-30 15:33N 38°02' E 023°32'1 1.0
2015-Jul-30 14:33N 38°01' E 023°33'4 4.1
2015-Jul-30 13:33N 37°57' E 023°34'4 3.5
2015-Jul-30 12:34N 37°54' E 023°37'9 8.8
2015-Jul-30 11:33N 37°46' E 023°42'9 8.8
2015-Jul-30 10:33N 37°40' E 023°49'10 9.3
2015-Jul-30 09:32N 37°37' E 024°01'99 3.1
2015-Jul-29 01:15N 37°55' E 026°04'10 9.7
2015-Jul-29 00:15N 37°45' E 026°01'7 9.8
2015-Jul-28 23:33N 37°39' E 025°59'9 9.3
2015-Jul-28 22:33N 37°30' E 025°56'9 9.1
2015-Jul-28 21:31N 37°21' E 025°55'9 9.1
2015-Jul-28 20:33N 37°12' E 025°53'9 9.2
2015-Jul-28 19:33N 37°03' E 025°51'9 9.2
2015-Jul-28 18:32N 36°54' E 025°46'9 8.8
2015-Jul-28 17:33N 36°47' E 025°41'9 9.3
2015-Jul-28 16:33N 36°38' E 025°37'9 9.4
2015-Jul-28 15:33N 36°29' E 025°32'5 4.9
2015-Jul-28 14:32N 36°25' E 025°29'0 0.0
2015-Jul-28 13:32N 36°25' E 025°29'0 0.0
2015-Jul-28 12:32N 36°25' E 025°29'0 0.0
2015-Jul-28 11:32N 36°25' E 025°29'0 0.0
2015-Jul-28 10:32N 36°25' E 025°29'0 0.0
2015-Jul-28 09:32N 36°25' E 025°29'0 0.0
2015-Jul-28 08:32N 36°25' E 025°29'0 0.0
2015-Jul-28 07:32N 36°25' E 025°29'0 0.0
2015-Jul-28 06:32N 36°25' E 025°29'0 0.0
2015-Jul-28 05:32N 36°25' E 025°29'0 0.0
2015-Jul-28 04:32N 36°25' E 025°29'0 0.0
2015-Jul-28 03:32N 36°25' E 025°29'0 0.0
2015-Jul-28 02:32N 36°25' E 025°29'0 0.0
2015-Jul-28 01:32N 36°25' E 025°29'0 0.0
2015-Jul-28 00:32N 36°25' E 025°29'0 0.0
2015-Jul-27 23:32N 36°25' E 025°29'0 0.0
2015-Jul-27 22:32N 36°25' E 025°29'0 0.0
2015-Jul-27 21:32N 36°25' E 025°29'0 0.0
2015-Jul-27 20:32N 36°25' E 025°29'0 0.0
2015-Jul-27 19:32N 36°25' E 025°29'0 0.0
2015-Jul-27 18:32N 36°25' E 025°29'0 0.0
2015-Jul-27 17:32N 36°25' E 025°29'0 0.0
2015-Jul-27 16:32N 36°25' E 025°29'0 0.0
2015-Jul-27 15:32N 36°25' E 025°29'0 0.0
2015-Jul-27 14:32N 36°25' E 025°29'0 0.0
2015-Jul-27 13:32N 36°25' E 025°29'0 0.0
2015-Jul-27 12:32N 36°25' E 025°29'0 0.0
2015-Jul-27 11:32N 36°25' E 025°29'0 0.0
2015-Jul-27 10:32N 36°25' E 025°29'0 0.0
2015-Jul-27 09:32N 36°25' E 025°29'0 0.0
2015-Jul-27 08:32N 36°25' E 025°29'0 0.0
2015-Jul-27 07:32N 36°25' E 025°29'0 0.0
2015-Jul-27 06:32N 36°25' E 025°29'0 0.1
2015-Jul-27 05:32N 36°25' E 025°29'8 6.7
2015-Jul-27 04:22N 36°30' E 025°21'8 9.3
2015-Jul-27 03:33N 36°31' E 025°12'10 9.3
2015-Jul-27 02:31N 36°33' E 025°00'9 8.8
2015-Jul-27 01:28N 36°37' E 024°50'9 9.4
2015-Jul-27 00:33N 36°44' E 024°44'10 9.6
2015-Jul-26 23:33N 36°52' E 024°36'11 9.4
2015-Jul-26 22:21N 36°58' E 024°25'8 9.6
2015-Jul-26 21:34N 37°03' E 024°17'10 9.5
2015-Jul-26 20:33N 37°11' E 024°10'10 9.4
2015-Jul-26 19:32N 37°18' E 024°03'9 9.5
2015-Jul-26 18:33N 37°26' E 023°56'9 9.4
2015-Jul-26 17:33N 37°33' E 023°49'9 9.5
2015-Jul-26 16:33N 37°41' E 023°42'9 9.3
2015-Jul-26 15:33N 37°49' E 023°36'8 8.1
2015-Jul-26 14:33N 37°57' E 023°34'6 5.7
2015-Jul-26 13:33N 38°02' E 023°30'0 0.2
2015-Jul-26 12:31N 38°02' E 023°30'0 0.0
2015-Jul-26 11:28N 38°02' E 023°30'0 0.0
2015-Jul-26 10:31N 38°02' E 023°30'0 0.0
2015-Jul-26 09:28N 38°02' E 023°30'0 0.0
2015-Jul-26 08:19N 38°02' E 023°30'0 0.0
2015-Jul-26 07:31N 38°02' E 023°30'0 0.0
2015-Jul-26 06:28N 38°02' E 023°30'0 0.4
2015-Jul-26 05:33N 38°02' E 023°30'1 1.2
2015-Jul-26 04:32N 38°01' E 023°32'0 0.0
2015-Jul-26 03:33N 38°01' E 023°32'0 0.0
2015-Jul-26 01:15N 38°01' E 023°32'0 0.0
2015-Jul-26 00:30N 38°01' E 023°32'0 0.0
2015-Jul-25 23:17N 38°01' E 023°32'0 0.0
2015-Jul-25 22:32N 38°01' E 023°32'0 0.1
2015-Jul-25 21:33N 38°01' E 023°32'0 0.0
2015-Jul-25 20:33N 38°01' E 023°32'0 0.1
2015-Jul-25 19:33N 38°01' E 023°32'3 2.9
2015-Jul-25 18:33N 38°02' E 023°36'0 0.0
2015-Jul-25 15:33N 38°02' E 023°36'0 0.0
2015-Jul-25 14:33N 38°02' E 023°36'4 4.4
2015-Jul-25 13:33N 37°58' E 023°33'8 8.0
2015-Jul-25 12:33N 37°51' E 023°39'10 9.8
2015-Jul-25 11:33N 37°43' E 023°44'10 9.6
2015-Jul-25 10:33N 37°38' E 023°55'41 9.5
2015-Jul-25 06:13N 37°24' E 024°44'710.0
2015-Jul-25 05:33N 37°21' E 024°51'1010.1
2015-Jul-25 04:33N 37°18' E 025°03'10 9.7
2015-Jul-25 03:33N 37°17' E 025°15'1010.1
2015-Jul-25 02:33N 37°14' E 025°28'10 9.8
2015-Jul-25 01:33N 37°12' E 025°40'10 9.4
2015-Jul-25 00:33N 37°10' E 025°51'9 9.4
2015-Jul-24 23:33N 37°08' E 026°03'10 9.4
2015-Jul-24 22:27N 37°05' E 026°15'9 9.4
2015-Jul-24 21:30N 37°03' E 026°26'9 9.2
2015-Jul-24 20:33N 37°00' E 026°36'10 9.7
2015-Jul-24 19:33N 36°56' E 026°47'9 8.8
2015-Jul-24 18:32N 36°52' E 026°57'5 4.7
2015-Jul-24 17:33N 36°50' E 027°03'38 2.1
2015-Jul-23 23:20N 37°04' E 026°19'  
Track history (hours):
 
Tides and Currents Weather Stations Pressure Air Temp Water Temp Dewpoint Dewpoint Depression Visibility Wind Speed Wind Dir Waves Ship Positions

Eviapetrol I

Last reported at 2015-Aug-02 21:33 UTC. Time now 2015-Aug-02 22:27 UTC.
Position N 36°50' E 027°03'.

Length 75 m; draft 5 m.

Type: Tanker. MMSI: 240285000.

Date/timePositionNaut miles runAvg speedWind from/ knotsBaromVisibWave heightAir tempDewpointWater temp
2015-Aug-02 21:33N 36°50' E 027°03'0 0.0
2015-Aug-02 20:21N 36°50' E 027°03'0 0.0
2015-Aug-02 19:33N 36°50' E 027°03'0 0.0
2015-Aug-02 18:27N 36°50' E 027°03'0 0.0
2015-Aug-02 17:21N 36°50' E 027°03'0 0.0
2015-Aug-02 16:30N 36°50' E 027°03'0 0.0
2015-Aug-02 15:33N 36°50' E 027°03'0 0.0
2015-Aug-02 14:33N 36°50' E 027°03'0 0.0
2015-Aug-02 13:15N 36°50' E 027°03'0 0.0
2015-Aug-02 12:29N 36°50' E 027°03'3 3.1
2015-Aug-02 11:32N 36°51' E 026°59'31 3.1
2015-Aug-02 01:33N 37°03' E 026°23'12 8.6
2015-Aug-02 00:13N 37°06' E 026°09'8 8.8
2015-Aug-01 23:21N 37°08' E 026°00'9 9.0
2015-Aug-01 22:21N 37°10' E 025°49'8 9.5
2015-Aug-01 21:33N 37°11' E 025°40'9 8.8
2015-Aug-01 20:33N 37°14' E 025°29'8 8.4
2015-Aug-01 19:33N 37°16' E 025°19'8 8.5
2015-Aug-01 18:33N 37°17' E 025°09'8 8.4
2015-Aug-01 17:34N 37°19' E 024°58'9 8.8
2015-Aug-01 16:33N 37°22' E 024°48'35 8.2
2015-Aug-01 12:15N 37°33' E 024°05'7 8.5
2015-Aug-01 11:28N 37°36' E 023°58'8 8.8
2015-Aug-01 10:33N 37°38' E 023°48'8 8.1
2015-Aug-01 09:33N 37°43' E 023°40'9 9.4
2015-Aug-01 08:33N 37°52' E 023°36'8 8.0
2015-Aug-01 07:33N 37°60' E 023°33'2 1.8
2015-Aug-01 06:33N 38°01' E 023°32'0 0.0
2015-Aug-01 05:30N 38°01' E 023°32'0 0.0
2015-Aug-01 04:33N 38°01' E 023°32'0 0.0
2015-Aug-01 03:33N 38°01' E 023°32'0 0.0
2015-Aug-01 02:33N 38°01' E 023°32'0 0.0
2015-Aug-01 01:33N 38°01' E 023°32'0 0.0
2015-Aug-01 00:27N 38°01' E 023°32'0 0.0
2015-Jul-31 23:30N 38°01' E 023°32'0 0.0
2015-Jul-31 22:33N 38°01' E 023°32'0 0.0
2015-Jul-31 21:33N 38°01' E 023°32'0 0.0
2015-Jul-31 20:33N 38°01' E 023°32'0 0.0
2015-Jul-31 19:33N 38°02' E 023°32'0 0.0
2015-Jul-31 18:33N 38°02' E 023°32'3 2.6
2015-Jul-31 17:33N 38°02' E 023°36'0 0.0
2015-Jul-31 13:33N 38°02' E 023°36'0 0.0
2015-Jul-31 10:33N 38°02' E 023°36'0 0.0
2015-Jul-31 09:33N 38°02' E 023°36'0 0.0
2015-Jul-31 08:33N 38°02' E 023°36'0 0.0
2015-Jul-31 07:33N 38°02' E 023°36'0 0.0
2015-Jul-31 06:21N 38°02' E 023°36'0 0.0
2015-Jul-31 05:27N 38°02' E 023°36'1 1.4
2015-Jul-31 04:33N 38°01' E 023°34'2 1.5
2015-Jul-31 03:16N 38°02' E 023°32'0 0.0
2015-Jul-31 00:22N 38°02' E 023°32'0 0.0
2015-Jul-30 23:29N 38°02' E 023°32'0 0.0
2015-Jul-30 22:32N 38°02' E 023°32'0 0.0
2015-Jul-30 21:31N 38°02' E 023°32'0 0.0
2015-Jul-30 20:23N 38°02' E 023°32'0 0.1
2015-Jul-30 19:31N 38°02' E 023°32'0 0.0
2015-Jul-30 18:32N 38°02' E 023°32'0 0.0
2015-Jul-30 17:32N 38°02' E 023°32'0 0.0
2015-Jul-30 16:26N 38°02' E 023°32'0 0.0
2015-Jul-30 15:33N 38°02' E 023°32'1 1.0
2015-Jul-30 14:33N 38°01' E 023°33'4 4.1
2015-Jul-30 13:33N 37°57' E 023°34'4 3.5
2015-Jul-30 12:34N 37°54' E 023°37'9 8.8
2015-Jul-30 11:33N 37°46' E 023°42'9 8.8
2015-Jul-30 10:33N 37°40' E 023°49'10 9.3
2015-Jul-30 09:32N 37°37' E 024°01'99 3.1
2015-Jul-29 01:15N 37°55' E 026°04'10 9.7
2015-Jul-29 00:15N 37°45' E 026°01'7 9.8
2015-Jul-28 23:33N 37°39' E 025°59'9 9.3
2015-Jul-28 22:33N 37°30' E 025°56'9 9.1
2015-Jul-28 21:31N 37°21' E 025°55'9 9.1
2015-Jul-28 20:33N 37°12' E 025°53'9 9.2
2015-Jul-28 19:33N 37°03' E 025°51'9 9.2
2015-Jul-28 18:32N 36°54' E 025°46'9 8.8
2015-Jul-28 17:33N 36°47' E 025°41'9 9.3
2015-Jul-28 16:33N 36°38' E 025°37'9 9.4
2015-Jul-28 15:33N 36°29' E 025°32'5 4.9
2015-Jul-28 14:32N 36°25' E 025°29'0 0.0
2015-Jul-28 13:32N 36°25' E 025°29'0 0.0
2015-Jul-28 12:32N 36°25' E 025°29'0 0.0
2015-Jul-28 11:32N 36°25' E 025°29'0 0.0
2015-Jul-28 10:32N 36°25' E 025°29'0 0.0
2015-Jul-28 09:32N 36°25' E 025°29'0 0.0
2015-Jul-28 08:32N 36°25' E 025°29'0 0.0
2015-Jul-28 07:32N 36°25' E 025°29'0 0.0
2015-Jul-28 06:32N 36°25' E 025°29'0 0.0
2015-Jul-28 05:32N 36°25' E 025°29'0 0.0
2015-Jul-28 04:32N 36°25' E 025°29'0 0.0
2015-Jul-28 03:32N 36°25' E 025°29'0 0.0
2015-Jul-28 02:32N 36°25' E 025°29'0 0.0
2015-Jul-28 01:32N 36°25' E 025°29'0 0.0
2015-Jul-28 00:32N 36°25' E 025°29'0 0.0
2015-Jul-27 23:32N 36°25' E 025°29'0 0.0
2015-Jul-27 22:32N 36°25' E 025°29'0 0.0
2015-Jul-27 21:32N 36°25' E 025°29'0 0.0
2015-Jul-27 20:32N 36°25' E 025°29'0 0.0
2015-Jul-27 19:32N 36°25' E 025°29'0 0.0
2015-Jul-27 18:32N 36°25' E 025°29'0 0.0
2015-Jul-27 17:32N 36°25' E 025°29'0 0.0
2015-Jul-27 16:32N 36°25' E 025°29'0 0.0
2015-Jul-27 15:32N 36°25' E 025°29'0 0.0
2015-Jul-27 14:32N 36°25' E 025°29'0 0.0
2015-Jul-27 13:32N 36°25' E 025°29'0 0.0
2015-Jul-27 12:32N 36°25' E 025°29'0 0.0
2015-Jul-27 11:32N 36°25' E 025°29'0 0.0
2015-Jul-27 10:32N 36°25' E 025°29'0 0.0
2015-Jul-27 09:32N 36°25' E 025°29'0 0.0
2015-Jul-27 08:32N 36°25' E 025°29'0 0.0
2015-Jul-27 07:32N 36°25' E 025°29'0 0.0
2015-Jul-27 06:32N 36°25' E 025°29'0 0.1
2015-Jul-27 05:32N 36°25' E 025°29'8 6.7
2015-Jul-27 04:22N 36°30' E 025°21'8 9.3
2015-Jul-27 03:33N 36°31' E 025°12'10 9.3
2015-Jul-27 02:31N 36°33' E 025°00'9 8.8
2015-Jul-27 01:28N 36°37' E 024°50'9 9.4
2015-Jul-27 00:33N 36°44' E 024°44'10 9.6
2015-Jul-26 23:33N 36°52' E 024°36'11 9.4
2015-Jul-26 22:21N 36°58' E 024°25'8 9.6
2015-Jul-26 21:34N 37°03' E 024°17'10 9.5
2015-Jul-26 20:33N 37°11' E 024°10'10 9.4
2015-Jul-26 19:32N 37°18' E 024°03'9 9.5
2015-Jul-26 18:33N 37°26' E 023°56'9 9.4
2015-Jul-26 17:33N 37°33' E 023°49'9 9.5
2015-Jul-26 16:33N 37°41' E 023°42'9 9.3
2015-Jul-26 15:33N 37°49' E 023°36'8 8.1
2015-Jul-26 14:33N 37°57' E 023°34'6 5.7
2015-Jul-26 13:33N 38°02' E 023°30'0 0.2
2015-Jul-26 12:31N 38°02' E 023°30'0 0.0
2015-Jul-26 11:28N 38°02' E 023°30'0 0.0
2015-Jul-26 10:31N 38°02' E 023°30'0 0.0
2015-Jul-26 09:28N 38°02' E 023°30'0 0.0
2015-Jul-26 08:19N 38°02' E 023°30'0 0.0
2015-Jul-26 07:31N 38°02' E 023°30'0 0.0
2015-Jul-26 06:28N 38°02' E 023°30'0 0.4
2015-Jul-26 05:33N 38°02' E 023°30'1 1.2
2015-Jul-26 04:32N 38°01' E 023°32'0 0.0
2015-Jul-26 03:33N 38°01' E 023°32'0 0.0
2015-Jul-26 01:15N 38°01' E 023°32'0 0.0
2015-Jul-26 00:30N 38°01' E 023°32'0 0.0
2015-Jul-25 23:17N 38°01' E 023°32'0 0.0
2015-Jul-25 22:32N 38°01' E 023°32'0 0.1
2015-Jul-25 21:33N 38°01' E 023°32'0 0.0
2015-Jul-25 20:33N 38°01' E 023°32'0 0.1
2015-Jul-25 19:33N 38°01' E 023°32'3 2.9
2015-Jul-25 18:33N 38°02' E 023°36'0 0.0
2015-Jul-25 15:33N 38°02' E 023°36'0 0.0
2015-Jul-25 14:33N 38°02' E 023°36'4 4.4
2015-Jul-25 13:33N 37°58' E 023°33'8 8.0
2015-Jul-25 12:33N 37°51' E 023°39'10 9.8
2015-Jul-25 11:33N 37°43' E 023°44'10 9.6
2015-Jul-25 10:33N 37°38' E 023°55'41 9.5
2015-Jul-25 06:13N 37°24' E 024°44'710.0
2015-Jul-25 05:33N 37°21' E 024°51'1010.1
2015-Jul-25 04:33N 37°18' E 025°03'10 9.7
2015-Jul-25 03:33N 37°17' E 025°15'1010.1
2015-Jul-25 02:33N 37°14' E 025°28'10 9.8
2015-Jul-25 01:33N 37°12' E 025°40'10 9.4
2015-Jul-25 00:33N 37°10' E 025°51'9 9.4
2015-Jul-24 23:33N 37°08' E 026°03'10 9.4
2015-Jul-24 22:27N 37°05' E 026°15'9 9.4
2015-Jul-24 21:30N 37°03' E 026°26'9 9.2
2015-Jul-24 20:33N 37°00' E 026°36'10 9.7
2015-Jul-24 19:33N 36°56' E 026°47'9 8.8
2015-Jul-24 18:32N 36°52' E 026°57'5 4.7
2015-Jul-24 17:33N 36°50' E 027°03'38 2.1
2015-Jul-23 23:20N 37°04' E 026°19'  

Dump ship's entire track history